BKF weather

Public forecast

Using degrees Fahrenheit for public forecast. Weather courtesy of forecast.io.

Closest aviation weather report (METAR) to Lake Brooks Seaplane Base

Closest report is King Salmon Airport, 28.2 nm (52.3 km) WNW. Retrieved 2020/08/14 09:54 UTC (43 minutes ago):

PAKN 140954Z 16005KT 8SM CLR 09/08 A2997

Closest aviation forecast (TAF) to Lake Brooks Seaplane Base

Closest forecast is King Salmon Airport, 28.2 nm (52.3 km) WNW. Retrieved 2020/08/14 06:30 UTC (4 hours ago):

TAF TAF PAKN 140521Z 1406/1506 20008KT P6SM SKC FM141300 VRB03KT P6SM VCFG SCT001 FM141800 VRB04KT P6SM FEW120 FM150000 34009G17KT P6SM SCT120